sensor_id;sensor_type;location;lat;lon;timestamp;temperature;humidity
4964;DHT22;2497;47.410;9.740;2022-08-01T00:01:42;20.80;99.90
4964;DHT22;2497;47.410;9.740;2022-08-01T00:04:09;20.80;99.90
4964;DHT22;2497;47.410;9.740;2022-08-01T00:06:37;20.80;99.90
4964;DHT22;2497;47.410;9.740;2022-08-01T00:09:04;20.70;99.90
4964;DHT22;2497;47.410;9.740;2022-08-01T00:11:31;20.80;99.90
4964;DHT22;2497;47.410;9.740;2022-08-01T00:14:01;20.80;99.90
4964;DHT22;2497;47.410;9.740;2022-08-01T00:16:28;20.80;99.90
4964;DHT22;2497;47.410;9.740;2022-08-01T00:18:56;20.90;99.90
4964;DHT22;2497;47.410;9.740;2022-08-01T00:21:23;20.90;99.90
4964;DHT22;2497;47.410;9.740;2022-08-01T00:23:51;21.00;99.90
4964;DHT22;2497;47.410;9.740;2022-08-01T00:26:18;21.10;99.90
4964;DHT22;2497;47.410;9.740;2022-08-01T00:28:46;21.10;99.90
4964;DHT22;2497;47.410;9.740;2022-08-01T00:31:15;21.20;99.90
4964;DHT22;2497;47.410;9.740;2022-08-01T00:33:42;21.10;99.90
4964;DHT22;2497;47.410;9.740;2022-08-01T00:36:10;21.00;99.90
4964;DHT22;2497;47.410;9.740;2022-08-01T00:38:37;21.00;99.90
4964;DHT22;2497;47.410;9.740;2022-08-01T00:41:05;21.10;99.90
4964;DHT22;2497;47.410;9.740;2022-08-01T00:43:32;21.10;99.90
4964;DHT22;2497;47.410;9.740;2022-08-01T00:45:59;21.10;99.90
4964;DHT22;2497;47.410;9.740;2022-08-01T00:48:28;21.10;99.90
4964;DHT22;2497;47.410;9.740;2022-08-01T00:50:56;21.10;99.90
4964;DHT22;2497;47.410;9.740;2022-08-01T00:53:24;21.20;99.90
4964;DHT22;2497;47.410;9.740;2022-08-01T00:55:52;21.20;99.90
4964;DHT22;2497;47.410;9.740;2022-08-01T00:58:20;21.20;99.90
4964;DHT22;2497;47.410;9.740;2022-08-01T01:00:47;21.20;99.90
4964;DHT22;2497;47.410;9.740;2022-08-01T01:03:15;21.20;99.90
4964;DHT22;2497;47.410;9.740;2022-08-01T01:05:50;21.30;99.90
4964;DHT22;2497;47.410;9.740;2022-08-01T01:08:26;21.30;99.90
4964;DHT22;2497;47.410;9.740;2022-08-01T01:10:56;21.30;99.90
4964;DHT22;2497;47.410;9.740;2022-08-01T01:13:32;21.30;99.90
4964;DHT22;2497;47.410;9.740;2022-08-01T01:16:06;21.30;99.90
4964;DHT22;2497;47.410;9.740;2022-08-01T01:18:40;21.30;99.90
4964;DHT22;2497;47.410;9.740;2022-08-01T01:24:11;21.30;99.90
4964;DHT22;2497;47.410;9.740;2022-08-01T01:26:45;21.30;99.90
4964;DHT22;2497;47.410;9.740;2022-08-01T01:29:21;21.30;99.90
4964;DHT22;2497;47.410;9.740;2022-08-01T01:31:55;21.40;99.90
4964;DHT22;2497;47.410;9.740;2022-08-01T01:34:24;21.40;99.90
4964;DHT22;2497;47.410;9.740;2022-08-01T01:36:54;21.40;99.90
4964;DHT22;2497;47.410;9.740;2022-08-01T01:39:22;21.40;99.90
4964;DHT22;2497;47.410;9.740;2022-08-01T01:41:53;21.40;99.90
4964;DHT22;2497;47.410;9.740;2022-08-01T01:44:24;21.40;99.90
4964;DHT22;2497;47.410;9.740;2022-08-01T01:46:52;21.40;99.90
4964;DHT22;2497;47.410;9.740;2022-08-01T01:49:21;21.50;99.90
4964;DHT22;2497;47.410;9.740;2022-08-01T01:51:51;21.40;99.90
4964;DHT22;2497;47.410;9.740;2022-08-01T01:54:22;21.40;99.90
4964;DHT22;2497;47.410;9.740;2022-08-01T01:56:51;21.40;99.90
4964;DHT22;2497;47.410;9.740;2022-08-01T01:59:24;21.40;99.90
4964;DHT22;2497;47.410;9.740;2022-08-01T02:01:53;21.30;99.90
4964;DHT22;2497;47.410;9.740;2022-08-01T02:04:22;21.20;99.90
4964;DHT22;2497;47.410;9.740;2022-08-01T02:06:50;21.10;99.90
4964;DHT22;2497;47.410;9.740;2022-08-01T02:09:20;21.20;99.90
4964;DHT22;2497;47.410;9.740;2022-08-01T02:11:49;21.10;99.90
4964;DHT22;2497;47.410;9.740;2022-08-01T02:14:18;21.00;99.90
4964;DHT22;2497;47.410;9.740;2022-08-01T02:16:49;21.10;99.90
4964;DHT22;2497;47.410;9.740;2022-08-01T02:19:17;21.10;99.90
4964;DHT22;2497;47.410;9.740;2022-08-01T02:21:49;21.10;99.90
4964;DHT22;2497;47.410;9.740;2022-08-01T02:24:23;21.10;99.90
4964;DHT22;2497;47.410;9.740;2022-08-01T02:26:52;21.10;99.90
4964;DHT22;2497;47.410;9.740;2022-08-01T02:29:24;21.10;99.90
4964;DHT22;2497;47.410;9.740;2022-08-01T02:31:56;21.00;99.90
4964;DHT22;2497;47.410;9.740;2022-08-01T02:34:28;21.00;99.90
4964;DHT22;2497;47.410;9.740;2022-08-01T02:36:58;20.90;99.90
4964;DHT22;2497;47.410;9.740;2022-08-01T02:39:27;20.90;99.90
4964;DHT22;2497;47.410;9.740;2022-08-01T02:41:57;20.80;99.90
4964;DHT22;2497;47.410;9.740;2022-08-01T02:44:30;20.90;99.90
4964;DHT22;2497;47.410;9.740;2022-08-01T02:47:00;20.80;99.90
4964;DHT22;2497;47.410;9.740;2022-08-01T02:49:32;20.80;99.90
4964;DHT22;2497;47.410;9.740;2022-08-01T02:52:03;20.80;99.90
4964;DHT22;2497;47.410;9.740;2022-08-01T02:54:33;20.70;99.90
4964;DHT22;2497;47.410;9.740;2022-08-01T02:57:02;20.70;99.90
4964;DHT22;2497;47.410;9.740;2022-08-01T02:59:31;20.60;99.90
4964;DHT22;2497;47.410;9.740;2022-08-01T03:02:04;20.60;99.90
4964;DHT22;2497;47.410;9.740;2022-08-01T03:04:34;20.50;99.90
4964;DHT22;2497;47.410;9.740;2022-08-01T03:07:04;20.50;99.90
4964;DHT22;2497;47.410;9.740;2022-08-01T03:09:35;20.50;99.90
4964;DHT22;2497;47.410;9.740;2022-08-01T03:12:06;20.50;99.90
4964;DHT22;2497;47.410;9.740;2022-08-01T03:14:37;20.50;99.90
4964;DHT22;2497;47.410;9.740;2022-08-01T03:17:08;20.40;99.90
4964;DHT22;2497;47.410;9.740;2022-08-01T03:19:38;20.40;99.90
4964;DHT22;2497;47.410;9.740;2022-08-01T03:22:08;20.40;99.90
4964;DHT22;2497;47.410;9.740;2022-08-01T03:24:37;20.50;99.90
4964;DHT22;2497;47.410;9.740;2022-08-01T03:27:06;20.40;99.90
4964;DHT22;2497;47.410;9.740;2022-08-01T03:29:34;20.30;99.90
4964;DHT22;2497;47.410;9.740;2022-08-01T03:32:09;20.30;99.90
4964;DHT22;2497;47.410;9.740;2022-08-01T03:34:37;20.30;99.90
4964;DHT22;2497;47.410;9.740;2022-08-01T03:37:07;20.30;99.90
4964;DHT22;2497;47.410;9.740;2022-08-01T03:39:40;20.30;99.90
4964;DHT22;2497;47.410;9.740;2022-08-01T03:42:14;20.30;99.90
4964;DHT22;2497;47.410;9.740;2022-08-01T03:44:59;20.30;99.90
4964;DHT22;2497;47.410;9.740;2022-08-01T03:47:32;20.20;99.90
4964;DHT22;2497;47.410;9.740;2022-08-01T03:50:02;20.30;99.90
4964;DHT22;2497;47.410;9.740;2022-08-01T03:52:30;20.30;99.90
4964;DHT22;2497;47.410;9.740;2022-08-01T03:55:01;20.20;99.90
4964;DHT22;2497;47.410;9.740;2022-08-01T03:57:29;20.20;99.90
4964;DHT22;2497;47.410;9.740;2022-08-01T03:59:57;20.00;99.90
4964;DHT22;2497;47.410;9.740;2022-08-01T04:02:26;20.10;99.90
4964;DHT22;2497;47.410;9.740;2022-08-01T04:04:56;20.10;99.90
4964;DHT22;2497;47.410;9.740;2022-08-01T04:07:25;20.10;99.90
4964;DHT22;2497;47.410;9.740;2022-08-01T04:09:52;20.10;99.90
4964;DHT22;2497;47.410;9.740;2022-08-01T04:12:20;20.10;99.90
4964;DHT22;2497;47.410;9.740;2022-08-01T04:14:48;20.10;99.90
4964;DHT22;2497;47.410;9.740;2022-08-01T04:17:16;20.00;99.90
4964;DHT22;2497;47.410;9.740;2022-08-01T04:19:44;19.90;99.90
4964;DHT22;2497;47.410;9.740;2022-08-01T04:22:14;19.90;99.90
4964;DHT22;2497;47.410;9.740;2022-08-01T04:24:44;19.80;99.90
4964;DHT22;2497;47.410;9.740;2022-08-01T04:27:17;19.80;99.90
4964;DHT22;2497;47.410;9.740;2022-08-01T04:29:47;19.60;99.90
4964;DHT22;2497;47.410;9.740;2022-08-01T04:32:16;19.40;99.90
4964;DHT22;2497;47.410;9.740;2022-08-01T04:34:46;19.40;99.90
4964;DHT22;2497;47.410;9.740;2022-08-01T04:37:17;19.30;99.90
4964;DHT22;2497;47.410;9.740;2022-08-01T04:39:46;19.40;99.90
4964;DHT22;2497;47.410;9.740;2022-08-01T04:42:14;19.40;99.90
4964;DHT22;2497;47.410;9.740;2022-08-01T04:44:42;19.30;99.90
4964;DHT22;2497;47.410;9.740;2022-08-01T04:47:09;19.30;99.90
4964;DHT22;2497;47.410;9.740;2022-08-01T04:49:37;19.40;99.90
4964;DHT22;2497;47.410;9.740;2022-08-01T04:52:06;19.50;99.90
4964;DHT22;2497;47.410;9.740;2022-08-01T04:54:35;19.60;99.90
4964;DHT22;2497;47.410;9.740;2022-08-01T04:57:04;19.70;99.90
4964;DHT22;2497;47.410;9.740;2022-08-01T04:59:32;19.70;99.90
4964;DHT22;2497;47.410;9.740;2022-08-01T05:02:10;19.80;99.90
4964;DHT22;2497;47.410;9.740;2022-08-01T05:04:39;19.70;99.90
4964;DHT22;2497;47.410;9.740;2022-08-01T05:07:07;19.70;99.90
4964;DHT22;2497;47.410;9.740;2022-08-01T05:09:36;19.60;99.90
4964;DHT22;2497;47.410;9.740;2022-08-01T05:12:05;19.60;99.90
4964;DHT22;2497;47.410;9.740;2022-08-01T05:14:33;19.50;99.90
4964;DHT22;2497;47.410;9.740;2022-08-01T05:17:02;19.50;99.90
4964;DHT22;2497;47.410;9.740;2022-08-01T05:19:30;19.40;99.90
4964;DHT22;2497;47.410;9.740;2022-08-01T05:21:57;19.40;99.90
4964;DHT22;2497;47.410;9.740;2022-08-01T05:24:26;19.40;99.90
4964;DHT22;2497;47.410;9.740;2022-08-01T05:26:55;19.30;99.90
4964;DHT22;2497;47.410;9.740;2022-08-01T05:29:23;19.50;99.90
4964;DHT22;2497;47.410;9.740;2022-08-01T05:31:51;19.70;99.90
4964;DHT22;2497;47.410;9.740;2022-08-01T05:34:19;19.70;99.90
4964;DHT22;2497;47.410;9.740;2022-08-01T05:36:46;19.90;99.90
4964;DHT22;2497;47.410;9.740;2022-08-01T05:39:14;20.00;99.90
4964;DHT22;2497;47.410;9.740;2022-08-01T05:41:42;20.00;99.90
4964;DHT22;2497;47.410;9.740;2022-08-01T05:44:11;20.10;99.90
4964;DHT22;2497;47.410;9.740;2022-08-01T05:46:38;20.20;99.90
4964;DHT22;2497;47.410;9.740;2022-08-01T05:49:06;20.30;99.90
4964;DHT22;2497;47.410;9.740;2022-08-01T05:51:34;20.40;99.90
4964;DHT22;2497;47.410;9.740;2022-08-01T05:54:01;20.40;99.90
4964;DHT22;2497;47.410;9.740;2022-08-01T05:56:29;20.40;99.90
4964;DHT22;2497;47.410;9.740;2022-08-01T05:58:56;20.50;99.90
4964;DHT22;2497;47.410;9.740;2022-08-01T06:01:25;20.50;99.90
4964;DHT22;2497;47.410;9.740;2022-08-01T06:03:53;20.60;99.90
4964;DHT22;2497;47.410;9.740;2022-08-01T06:06:20;20.70;99.90
4964;DHT22;2497;47.410;9.740;2022-08-01T06:08:47;20.60;99.90
4964;DHT22;2497;47.410;9.740;2022-08-01T06:11:16;20.50;99.90
4964;DHT22;2497;47.410;9.740;2022-08-01T06:13:43;20.60;99.90
4964;DHT22;2497;47.410;9.740;2022-08-01T06:16:11;20.70;99.90
4964;DHT22;2497;47.410;9.740;2022-08-01T06:18:40;20.80;99.90
4964;DHT22;2497;47.410;9.740;2022-08-01T06:21:07;20.80;99.90
4964;DHT22;2497;47.410;9.740;2022-08-01T06:23:35;20.90;99.90
4964;DHT22;2497;47.410;9.740;2022-08-01T06:26:03;21.10;99.90
4964;DHT22;2497;47.410;9.740;2022-08-01T06:28:30;21.30;99.90
4964;DHT22;2497;47.410;9.740;2022-08-01T06:30:58;21.50;99.90
4964;DHT22;2497;47.410;9.740;2022-08-01T06:33:26;21.50;99.90
4964;DHT22;2497;47.410;9.740;2022-08-01T06:35:54;21.50;99.90
4964;DHT22;2497;47.410;9.740;2022-08-01T06:38:21;21.50;99.90
4964;DHT22;2497;47.410;9.740;2022-08-01T06:40:50;21.60;99.90
4964;DHT22;2497;47.410;9.740;2022-08-01T06:43:17;21.60;99.90
4964;DHT22;2497;47.410;9.740;2022-08-01T06:45:45;21.70;99.90
4964;DHT22;2497;47.410;9.740;2022-08-01T06:48:12;21.70;99.90
4964;DHT22;2497;47.410;9.740;2022-08-01T06:50:39;21.80;99.90
4964;DHT22;2497;47.410;9.740;2022-08-01T06:53:09;21.90;99.90
4964;DHT22;2497;47.410;9.740;2022-08-01T06:55:36;22.00;99.90
4964;DHT22;2497;47.410;9.740;2022-08-01T06:58:04;22.10;99.90
4964;DHT22;2497;47.410;9.740;2022-08-01T07:00:32;22.20;99.90
4964;DHT22;2497;47.410;9.740;2022-08-01T07:02:59;22.50;99.90
4964;DHT22;2497;47.410;9.740;2022-08-01T07:05:27;22.70;99.90
4964;DHT22;2497;47.410;9.740;2022-08-01T07:07:56;22.80;99.90
4964;DHT22;2497;47.410;9.740;2022-08-01T07:10:25;23.10;99.90
4964;DHT22;2497;47.410;9.740;2022-08-01T07:12:52;23.30;99.90
4964;DHT22;2497;47.410;9.740;2022-08-01T07:15:19;23.30;99.90
4964;DHT22;2497;47.410;9.740;2022-08-01T07:17:52;23.20;99.90
4964;DHT22;2497;47.410;9.740;2022-08-01T07:20:19;23.20;99.90
4964;DHT22;2497;47.410;9.740;2022-08-01T07:22:46;23.30;99.90
4964;DHT22;2497;47.410;9.740;2022-08-01T07:25:14;23.40;99.90
4964;DHT22;2497;47.410;9.740;2022-08-01T07:27:43;23.70;99.90
4964;DHT22;2497;47.410;9.740;2022-08-01T07:30:11;23.70;99.90
4964;DHT22;2497;47.410;9.740;2022-08-01T07:32:38;23.90;99.90
4964;DHT22;2497;47.410;9.740;2022-08-01T07:35:06;24.20;99.90
4964;DHT22;2497;47.410;9.740;2022-08-01T07:37:33;24.30;99.90
4964;DHT22;2497;47.410;9.740;2022-08-01T07:40:01;24.50;99.90
4964;DHT22;2497;47.410;9.740;2022-08-01T07:42:30;24.60;99.90
4964;DHT22;2497;47.410;9.740;2022-08-01T07:44:58;25.70;99.90
4964;DHT22;2497;47.410;9.740;2022-08-01T07:47:26;26.30;99.90
4964;DHT22;2497;47.410;9.740;2022-08-01T07:49:59;26.00;99.90
4964;DHT22;2497;47.410;9.740;2022-08-01T07:52:26;26.10;99.90
4964;DHT22;2497;47.410;9.740;2022-08-01T07:54:55;26.30;99.90
4964;DHT22;2497;47.410;9.740;2022-08-01T07:57:27;27.10;99.90
4964;DHT22;2497;47.410;9.740;2022-08-01T08:00:03;27.30;99.90
4964;DHT22;2497;47.410;9.740;2022-08-01T08:02:41;26.90;99.90
4964;DHT22;2497;47.410;9.740;2022-08-01T08:05:10;26.90;99.90
4964;DHT22;2497;47.410;9.740;2022-08-01T08:07:38;26.70;99.90
4964;DHT22;2497;47.410;9.740;2022-08-01T08:10:06;26.80;99.90
4964;DHT22;2497;47.410;9.740;2022-08-01T08:12:33;26.90;99.90
4964;DHT22;2497;47.410;9.740;2022-08-01T08:15:03;26.90;99.90
4964;DHT22;2497;47.410;9.740;2022-08-01T08:17:31;26.80;99.90
4964;DHT22;2497;47.410;9.740;2022-08-01T08:20:03;26.80;99.90
4964;DHT22;2497;47.410;9.740;2022-08-01T08:22:44;26.90;99.90
4964;DHT22;2497;47.410;9.740;2022-08-01T08:25:38;28.20;99.90
4964;DHT22;2497;47.410;9.740;2022-08-01T08:28:19;28.60;99.90
4964;DHT22;2497;47.410;9.740;2022-08-01T08:30:48;28.20;99.90
4964;DHT22;2497;47.410;9.740;2022-08-01T08:33:15;28.00;99.90
4964;DHT22;2497;47.410;9.740;2022-08-01T08:35:43;28.00;99.90
4964;DHT22;2497;47.410;9.740;2022-08-01T08:38:10;28.20;99.90
4964;DHT22;2497;47.410;9.740;2022-08-01T08:40:38;28.00;99.90
4964;DHT22;2497;47.410;9.740;2022-08-01T08:43:06;28.70;99.90
4964;DHT22;2497;47.410;9.740;2022-08-01T08:45:33;28.30;99.90
4964;DHT22;2497;47.410;9.740;2022-08-01T08:50:53;28.20;99.90
4964;DHT22;2497;47.410;9.740;2022-08-01T08:53:22;28.50;99.90
4964;DHT22;2497;47.410;9.740;2022-08-01T08:55:50;28.90;99.90
4964;DHT22;2497;47.410;9.740;2022-08-01T08:58:19;28.60;99.90
4964;DHT22;2497;47.410;9.740;2022-08-01T09:00:47;28.30;99.90
4964;DHT22;2497;47.410;9.740;2022-08-01T09:03:16;29.20;99.90
4964;DHT22;2497;47.410;9.740;2022-08-01T09:05:44;28.80;99.90
4964;DHT22;2497;47.410;9.740;2022-08-01T09:08:12;28.90;99.90
4964;DHT22;2497;47.410;9.740;2022-08-01T09:10:42;29.40;99.90
4964;DHT22;2497;47.410;9.740;2022-08-01T09:13:30;30.80;99.90
4964;DHT22;2497;47.410;9.740;2022-08-01T09:15:57;30.50;99.90
4964;DHT22;2497;47.410;9.740;2022-08-01T09:18:32;29.90;99.90
4964;DHT22;2497;47.410;9.740;2022-08-01T09:21:12;29.70;99.90
4964;DHT22;2497;47.410;9.740;2022-08-01T09:23:43;29.70;99.90
4964;DHT22;2497;47.410;9.740;2022-08-01T09:26:29;29.80;99.90
4964;DHT22;2497;47.410;9.740;2022-08-01T09:28:56;29.60;99.90
4964;DHT22;2497;47.410;9.740;2022-08-01T09:31:27;29.80;99.90
4964;DHT22;2497;47.410;9.740;2022-08-01T09:33:57;29.40;99.90
4964;DHT22;2497;47.410;9.740;2022-08-01T09:39:12;28.90;99.90
4964;DHT22;2497;47.410;9.740;2022-08-01T09:41:40;29.10;99.90
4964;DHT22;2497;47.410;9.740;2022-08-01T09:44:17;29.40;99.90
4964;DHT22;2497;47.410;9.740;2022-08-01T09:46:50;29.30;99.90
4964;DHT22;2497;47.410;9.740;2022-08-01T09:49:31;29.40;99.90
4964;DHT22;2497;47.410;9.740;2022-08-01T09:52:10;29.20;99.90
4964;DHT22;2497;47.410;9.740;2022-08-01T09:54:40;29.40;99.90
4964;DHT22;2497;47.410;9.740;2022-08-01T09:57:14;30.90;99.90
4964;DHT22;2497;47.410;9.740;2022-08-01T09:59:46;31.60;99.90
4964;DHT22;2497;47.410;9.740;2022-08-01T10:02:25;31.10;99.90
4964;DHT22;2497;47.410;9.740;2022-08-01T10:04:54;30.90;99.90
4964;DHT22;2497;47.410;9.740;2022-08-01T10:07:22;30.70;99.90
4964;DHT22;2497;47.410;9.740;2022-08-01T10:09:50;30.80;99.90
4964;DHT22;2497;47.410;9.740;2022-08-01T10:12:20;30.70;99.90
4964;DHT22;2497;47.410;9.740;2022-08-01T10:14:50;30.50;99.90
4964;DHT22;2497;47.410;9.740;2022-08-01T10:17:20;30.40;99.90
4964;DHT22;2497;47.410;9.740;2022-08-01T10:19:51;30.30;99.90
4964;DHT22;2497;47.410;9.740;2022-08-01T10:22:24;30.30;99.90
4964;DHT22;2497;47.410;9.740;2022-08-01T10:24:55;29.90;99.90
4964;DHT22;2497;47.410;9.740;2022-08-01T10:27:23;29.70;99.90
4964;DHT22;2497;47.410;9.740;2022-08-01T10:29:57;30.00;99.90
4964;DHT22;2497;47.410;9.740;2022-08-01T10:32:29;30.40;99.90
4964;DHT22;2497;47.410;9.740;2022-08-01T10:34:57;31.10;99.90
4964;DHT22;2497;47.410;9.740;2022-08-01T10:37:31;30.80;99.90
4964;DHT22;2497;47.410;9.740;2022-08-01T10:43:00;31.50;99.90
4964;DHT22;2497;47.410;9.740;2022-08-01T10:45:28;31.80;99.90
4964;DHT22;2497;47.410;9.740;2022-08-01T10:48:02;31.90;99.90
4964;DHT22;2497;47.410;9.740;2022-08-01T10:54:19;31.30;99.90
4964;DHT22;2497;47.410;9.740;2022-08-01T10:56:50;31.80;99.90
4964;DHT22;2497;47.410;9.740;2022-08-01T10:59:22;31.60;99.90
4964;DHT22;2497;47.410;9.740;2022-08-01T11:02:10;31.80;99.90
4964;DHT22;2497;47.410;9.740;2022-08-01T11:04:57;31.80;99.90
4964;DHT22;2497;47.410;9.740;2022-08-01T11:07:54;31.50;99.90
4964;DHT22;2497;47.410;9.740;2022-08-01T11:11:00;31.90;99.90
4964;DHT22;2497;47.410;9.740;2022-08-01T11:14:02;32.00;99.90
4964;DHT22;2497;47.410;9.740;2022-08-01T11:16:34;31.90;99.90
4964;DHT22;2497;47.410;9.740;2022-08-01T11:19:02;31.90;99.90
4964;DHT22;2497;47.410;9.740;2022-08-01T11:21:58;31.90;99.90
4964;DHT22;2497;47.410;9.740;2022-08-01T11:24:55;31.80;99.90
4964;DHT22;2497;47.410;9.740;2022-08-01T11:27:31;31.80;99.90
4964;DHT22;2497;47.410;9.740;2022-08-01T11:30:24;31.50;99.90
4964;DHT22;2497;47.410;9.740;2022-08-01T11:32:57;31.40;99.90
4964;DHT22;2497;47.410;9.740;2022-08-01T11:35:25;31.70;99.90
4964;DHT22;2497;47.410;9.740;2022-08-01T11:37:53;31.60;99.90
4964;DHT22;2497;47.410;9.740;2022-08-01T11:40:23;31.40;99.90
4964;DHT22;2497;47.410;9.740;2022-08-01T11:43:16;31.50;99.90
4964;DHT22;2497;47.410;9.740;2022-08-01T11:45:47;31.70;99.90
4964;DHT22;2497;47.410;9.740;2022-08-01T11:51:15;31.60;99.90
4964;DHT22;2497;47.410;9.740;2022-08-01T11:53:46;31.70;99.90
4964;DHT22;2497;47.410;9.740;2022-08-01T11:56:16;31.60;99.90
4964;DHT22;2497;47.410;9.740;2022-08-01T11:59:00;31.60;99.90
4964;DHT22;2497;47.410;9.740;2022-08-01T12:01:48;31.60;99.90
4964;DHT22;2497;47.410;9.740;2022-08-01T12:04:16;31.40;99.90
4964;DHT22;2497;47.410;9.740;2022-08-01T12:06:44;31.50;99.90
4964;DHT22;2497;47.410;9.740;2022-08-01T12:09:16;31.40;99.90
4964;DHT22;2497;47.410;9.740;2022-08-01T12:11:43;31.30;99.90
4964;DHT22;2497;47.410;9.740;2022-08-01T12:14:19;31.20;99.90
4964;DHT22;2497;47.410;9.740;2022-08-01T12:16:52;31.30;99.90
4964;DHT22;2497;47.410;9.740;2022-08-01T12:19:21;31.30;99.90
4964;DHT22;2497;47.410;9.740;2022-08-01T12:22:13;31.40;99.90
4964;DHT22;2497;47.410;9.740;2022-08-01T12:24:42;31.30;99.90
4964;DHT22;2497;47.410;9.740;2022-08-01T12:27:10;31.30;99.90
4964;DHT22;2497;47.410;9.740;2022-08-01T12:29:41;31.30;99.90
4964;DHT22;2497;47.410;9.740;2022-08-01T12:32:24;31.20;99.90
4964;DHT22;2497;47.410;9.740;2022-08-01T12:34:53;31.30;99.90
4964;DHT22;2497;47.410;9.740;2022-08-01T12:37:20;31.20;99.90
4964;DHT22;2497;47.410;9.740;2022-08-01T12:39:51;31.30;99.90
4964;DHT22;2497;47.410;9.740;2022-08-01T12:42:22;31.10;99.90
4964;DHT22;2497;47.410;9.740;2022-08-01T12:44:52;30.80;99.90
4964;DHT22;2497;47.410;9.740;2022-08-01T12:47:21;31.00;99.90
4964;DHT22;2497;47.410;9.740;2022-08-01T12:49:49;31.20;99.90
4964;DHT22;2497;47.410;9.740;2022-08-01T12:52:16;31.20;99.90
4964;DHT22;2497;47.410;9.740;2022-08-01T12:55:00;31.40;99.90
4964;DHT22;2497;47.410;9.740;2022-08-01T12:57:33;31.30;99.90
4964;DHT22;2497;47.410;9.740;2022-08-01T13:00:13;31.20;99.90
4964;DHT22;2497;47.410;9.740;2022-08-01T13:02:43;31.10;99.90
4964;DHT22;2497;47.410;9.740;2022-08-01T13:05:11;31.20;99.90
4964;DHT22;2497;47.410;9.740;2022-08-01T13:07:46;31.30;99.90
4964;DHT22;2497;47.410;9.740;2022-08-01T13:10:23;31.00;99.90
4964;DHT22;2497;47.410;9.740;2022-08-01T13:12:53;31.20;99.90
4964;DHT22;2497;47.410;9.740;2022-08-01T13:15:25;31.00;99.90
4964;DHT22;2497;47.410;9.740;2022-08-01T13:17:54;30.90;99.90
4964;DHT22;2497;47.410;9.740;2022-08-01T13:20:32;31.10;99.90
4964;DHT22;2497;47.410;9.740;2022-08-01T13:23:11;31.30;99.90
4964;DHT22;2497;47.410;9.740;2022-08-01T13:25:49;31.30;99.90
4964;DHT22;2497;47.410;9.740;2022-08-01T13:28:18;31.40;99.90
4964;DHT22;2497;47.410;9.740;2022-08-01T13:30:58;31.80;99.90
4964;DHT22;2497;47.410;9.740;2022-08-01T13:33:27;31.70;99.90
4964;DHT22;2497;47.410;9.740;2022-08-01T13:35:56;31.80;99.90
4964;DHT22;2497;47.410;9.740;2022-08-01T13:38:23;31.90;99.90
4964;DHT22;2497;47.410;9.740;2022-08-01T13:41:04;31.60;99.90
4964;DHT22;2497;47.410;9.740;2022-08-01T13:43:32;31.60;99.90
4964;DHT22;2497;47.410;9.740;2022-08-01T13:46:01;31.80;99.90
4964;DHT22;2497;47.410;9.740;2022-08-01T13:48:31;31.80;99.90
4964;DHT22;2497;47.410;9.740;2022-08-01T13:50:58;31.90;99.90
4964;DHT22;2497;47.410;9.740;2022-08-01T13:53:26;31.90;99.90
4964;DHT22;2497;47.410;9.740;2022-08-01T13:55:53;32.00;99.90
4964;DHT22;2497;47.410;9.740;2022-08-01T13:58:21;32.00;99.90
4964;DHT22;2497;47.410;9.740;2022-08-01T14:00:48;32.10;99.90
4964;DHT22;2497;47.410;9.740;2022-08-01T14:03:17;32.10;99.90
4964;DHT22;2497;47.410;9.740;2022-08-01T14:05:45;31.90;99.90
4964;DHT22;2497;47.410;9.740;2022-08-01T14:08:12;32.10;99.90
4964;DHT22;2497;47.410;9.740;2022-08-01T14:10:40;31.90;99.90
4964;DHT22;2497;47.410;9.740;2022-08-01T14:13:07;31.90;99.90
4964;DHT22;2497;47.410;9.740;2022-08-01T14:15:36;32.00;99.90
4964;DHT22;2497;47.410;9.740;2022-08-01T14:18:03;32.10;99.90
4964;DHT22;2497;47.410;9.740;2022-08-01T14:20:33;32.10;99.90
4964;DHT22;2497;47.410;9.740;2022-08-01T14:23:00;32.10;99.90
4964;DHT22;2497;47.410;9.740;2022-08-01T14:25:28;32.10;99.90
4964;DHT22;2497;47.410;9.740;2022-08-01T14:27:55;32.20;99.90
4964;DHT22;2497;47.410;9.740;2022-08-01T14:30:22;32.10;99.90
4964;DHT22;2497;47.410;9.740;2022-08-01T14:32:50;32.10;99.90
4964;DHT22;2497;47.410;9.740;2022-08-01T14:35:17;32.30;99.90
4964;DHT22;2497;47.410;9.740;2022-08-01T14:37:46;32.30;99.90
4964;DHT22;2497;47.410;9.740;2022-08-01T14:40:13;32.30;99.90
4964;DHT22;2497;47.410;9.740;2022-08-01T14:42:41;32.30;99.90
4964;DHT22;2497;47.410;9.740;2022-08-01T14:45:12;32.30;99.90
4964;DHT22;2497;47.410;9.740;2022-08-01T14:47:42;32.30;99.90
4964;DHT22;2497;47.410;9.740;2022-08-01T14:50:13;32.30;99.90
4964;DHT22;2497;47.410;9.740;2022-08-01T14:52:43;32.30;99.90
4964;DHT22;2497;47.410;9.740;2022-08-01T14:55:12;32.50;99.90
4964;DHT22;2497;47.410;9.740;2022-08-01T14:57:40;32.50;99.90
4964;DHT22;2497;47.410;9.740;2022-08-01T15:00:10;32.70;99.90
4964;DHT22;2497;47.410;9.740;2022-08-01T15:02:38;32.50;99.90
4964;DHT22;2497;47.410;9.740;2022-08-01T15:05:07;32.00;99.90
4964;DHT22;2497;47.410;9.740;2022-08-01T15:07:34;31.90;99.90
4964;DHT22;2497;47.410;9.740;2022-08-01T15:10:02;31.50;99.90
4964;DHT22;2497;47.410;9.740;2022-08-01T15:12:31;31.30;99.90
4964;DHT22;2497;47.410;9.740;2022-08-01T15:14:59;30.80;99.90
4964;DHT22;2497;47.410;9.740;2022-08-01T15:17:28;30.50;99.90
4964;DHT22;2497;47.410;9.740;2022-08-01T15:19:57;30.10;99.90
4964;DHT22;2497;47.410;9.740;2022-08-01T15:22:27;30.00;99.90
4964;DHT22;2497;47.410;9.740;2022-08-01T15:24:58;30.10;99.90
4964;DHT22;2497;47.410;9.740;2022-08-01T15:27:27;29.70;99.90
4964;DHT22;2497;47.410;9.740;2022-08-01T15:29:56;29.50;99.90
4964;DHT22;2497;47.410;9.740;2022-08-01T15:32:23;29.40;99.90
4964;DHT22;2497;47.410;9.740;2022-08-01T15:34:51;29.00;99.90
4964;DHT22;2497;47.410;9.740;2022-08-01T15:37:18;28.90;99.90
4964;DHT22;2497;47.410;9.740;2022-08-01T15:39:47;28.70;99.90
4964;DHT22;2497;47.410;9.740;2022-08-01T15:42:16;28.60;99.90
4964;DHT22;2497;47.410;9.740;2022-08-01T15:44:44;28.60;99.90
4964;DHT22;2497;47.410;9.740;2022-08-01T15:47:13;28.50;99.90
4964;DHT22;2497;47.410;9.740;2022-08-01T15:49:40;28.50;99.90
4964;DHT22;2497;47.410;9.740;2022-08-01T15:52:08;28.30;99.90
4964;DHT22;2497;47.410;9.740;2022-08-01T15:54:35;28.40;99.90
4964;DHT22;2497;47.410;9.740;2022-08-01T15:57:03;28.50;99.90
4964;DHT22;2497;47.410;9.740;2022-08-01T15:59:30;28.60;99.90
4964;DHT22;2497;47.410;9.740;2022-08-01T16:01:58;28.40;99.90
4964;DHT22;2497;47.410;9.740;2022-08-01T16:04:27;28.50;99.90
4964;DHT22;2497;47.410;9.740;2022-08-01T16:06:54;28.60;99.90
4964;DHT22;2497;47.410;9.740;2022-08-01T16:09:21;28.40;99.90
4964;DHT22;2497;47.410;9.740;2022-08-01T16:11:49;28.30;99.90
4964;DHT22;2497;47.410;9.740;2022-08-01T16:14:16;28.20;99.90
4964;DHT22;2497;47.410;9.740;2022-08-01T16:16:46;28.00;99.90
4964;DHT22;2497;47.410;9.740;2022-08-01T16:19:13;28.20;99.90
4964;DHT22;2497;47.410;9.740;2022-08-01T16:21:42;28.50;99.90
4964;DHT22;2497;47.410;9.740;2022-08-01T16:24:10;28.70;99.90
4964;DHT22;2497;47.410;9.740;2022-08-01T16:26:37;28.70;99.90
4964;DHT22;2497;47.410;9.740;2022-08-01T16:29:05;28.70;99.90
4964;DHT22;2497;47.410;9.740;2022-08-01T16:31:33;28.70;99.90
4964;DHT22;2497;47.410;9.740;2022-08-01T16:34:00;28.70;99.90
4964;DHT22;2497;47.410;9.740;2022-08-01T16:36:27;28.60;99.90
4964;DHT22;2497;47.410;9.740;2022-08-01T16:38:56;28.50;99.90
4964;DHT22;2497;47.410;9.740;2022-08-01T16:41:24;28.40;99.90